Terminal Aerodrome Forecast
Issued by NWS

Home | Current Version | Previous Version | Text Only | Print | Product List | Glossary On
Versions: 1 2 3 4 5 6 7 8 9 10 11 12 13 14 15 16 17
286
FTUS43 KAPX 041720
TAFAPN
TAF
KAPN 041720Z 0418/0518 17007KT P6SM OVC040
     FM042200 16006KT 3SM -RASN OVC025
     FM050000 16006KT 2SM -SN OVC012
     FM050200 16005KT 1 1/2SM -SN OVC008
     FM050900 22004KT 6SM -SNDZ BR OVC012
     FM051200 24005KT P6SM BKN015
     FM051600 25007KT P6SM BKN025=

USA.gov is the U.S. government's official web portal to all federal, state and local government web resources and services.